sensor_id;sensor_type;location;lat;lon;timestamp;temperature;humidity
6439;DHT22;3252;52.540;13.290;2022-09-27T06:52:22;12.10;99.90
6439;DHT22;3252;52.540;13.290;2022-09-27T08:35:43;12.40;99.90
6439;DHT22;3252;52.540;13.290;2022-09-27T08:38:12;12.50;99.90
6439;DHT22;3252;52.540;13.290;2022-09-27T08:52:53;12.60;99.90
6439;DHT22;3252;52.540;13.290;2022-09-27T08:55:02;12.60;99.90
6439;DHT22;3252;52.540;13.290;2022-09-27T08:57:08;12.70;99.90
6439;DHT22;3252;52.540;13.290;2022-09-27T08:59:13;12.70;99.90
6439;DHT22;3252;52.540;13.290;2022-09-27T09:01:17;12.70;99.90
6439;DHT22;3252;52.540;13.290;2022-09-27T09:03:33;12.70;99.90
6439;DHT22;3252;52.540;13.290;2022-09-27T09:05:38;12.70;99.90
6439;DHT22;3252;52.540;13.290;2022-09-27T09:07:55;12.80;99.90
6439;DHT22;3252;52.540;13.290;2022-09-27T09:10:09;12.80;99.90
6439;DHT22;3252;52.540;13.290;2022-09-27T09:12:30;12.90;99.90
6439;DHT22;3252;52.540;13.290;2022-09-27T09:15:02;12.90;99.90
6439;DHT22;3252;52.540;13.290;2022-09-27T09:17:19;12.80;99.90
6439;DHT22;3252;52.540;13.290;2022-09-27T09:19:54;12.80;99.90
6439;DHT22;3252;52.540;13.290;2022-09-27T09:22:17;12.90;99.90
6439;DHT22;3252;52.540;13.290;2022-09-27T09:24:40;12.90;99.90
6439;DHT22;3252;52.540;13.290;2022-09-27T09:26:53;12.90;99.90
6439;DHT22;3252;52.540;13.290;2022-09-27T09:29:06;12.90;99.90
6439;DHT22;3252;52.540;13.290;2022-09-27T09:31:17;13.00;99.90
6439;DHT22;3252;52.540;13.290;2022-09-27T09:33:32;12.90;99.90
6439;DHT22;3252;52.540;13.290;2022-09-27T09:35:41;13.00;99.90
6439;DHT22;3252;52.540;13.290;2022-09-27T09:37:48;13.00;99.90
6439;DHT22;3252;52.540;13.290;2022-09-27T09:39:55;13.10;99.90
6439;DHT22;3252;52.540;13.290;2022-09-27T09:42:06;13.10;99.90
6439;DHT22;3252;52.540;13.290;2022-09-27T09:44:16;13.20;99.90
6439;DHT22;3252;52.540;13.290;2022-09-27T09:46:23;13.20;99.90
6439;DHT22;3252;52.540;13.290;2022-09-27T09:48:31;13.20;99.90
6439;DHT22;3252;52.540;13.290;2022-09-27T09:50:40;13.20;99.90
6439;DHT22;3252;52.540;13.290;2022-09-27T09:52:50;13.20;99.90
6439;DHT22;3252;52.540;13.290;2022-09-27T09:55:01;13.20;99.90
6439;DHT22;3252;52.540;13.290;2022-09-27T09:57:12;13.20;99.90
6439;DHT22;3252;52.540;13.290;2022-09-27T09:59:19;13.30;99.90
6439;DHT22;3252;52.540;13.290;2022-09-27T10:01:29;13.30;99.90
6439;DHT22;3252;52.540;13.290;2022-09-27T10:03:34;13.30;99.90
6439;DHT22;3252;52.540;13.290;2022-09-27T10:05:37;13.30;99.90
6439;DHT22;3252;52.540;13.290;2022-09-27T10:07:43;13.30;99.90
6439;DHT22;3252;52.540;13.290;2022-09-27T10:09:46;13.40;99.90
6439;DHT22;3252;52.540;13.290;2022-09-27T10:12:09;13.40;99.90
6439;DHT22;3252;52.540;13.290;2022-09-27T10:14:14;13.40;99.90
6439;DHT22;3252;52.540;13.290;2022-09-27T10:16:19;13.40;99.90
6439;DHT22;3252;52.540;13.290;2022-09-27T10:18:22;13.40;99.90
6439;DHT22;3252;52.540;13.290;2022-09-27T10:20:32;13.50;99.90
6439;DHT22;3252;52.540;13.290;2022-09-27T10:22:41;13.40;99.90
6439;DHT22;3252;52.540;13.290;2022-09-27T10:24:59;13.50;99.90
6439;DHT22;3252;52.540;13.290;2022-09-27T10:27:14;13.40;99.90
6439;DHT22;3252;52.540;13.290;2022-09-27T10:29:22;13.40;99.90
6439;DHT22;3252;52.540;13.290;2022-09-27T10:31:34;13.40;99.90
6439;DHT22;3252;52.540;13.290;2022-09-27T10:33:53;13.40;99.90
6439;DHT22;3252;52.540;13.290;2022-09-27T10:35:59;13.40;99.90
6439;DHT22;3252;52.540;13.290;2022-09-27T10:38:20;13.40;99.90
6439;DHT22;3252;52.540;13.290;2022-09-27T10:40:28;13.50;99.90
6439;DHT22;3252;52.540;13.290;2022-09-27T10:42:35;13.50;99.90
6439;DHT22;3252;52.540;13.290;2022-09-27T10:44:39;13.50;99.90
6439;DHT22;3252;52.540;13.290;2022-09-27T10:46:58;13.50;99.90
6439;DHT22;3252;52.540;13.290;2022-09-27T10:49:26;13.50;99.90
6439;DHT22;3252;52.540;13.290;2022-09-27T10:51:32;13.60;99.90
6439;DHT22;3252;52.540;13.290;2022-09-27T10:53:35;13.60;99.90
6439;DHT22;3252;52.540;13.290;2022-09-27T10:55:46;13.80;99.90
6439;DHT22;3252;52.540;13.290;2022-09-27T10:57:53;13.80;99.90
6439;DHT22;3252;52.540;13.290;2022-09-27T10:59:59;13.70;99.90
6439;DHT22;3252;52.540;13.290;2022-09-27T11:02:04;13.70;99.90
6439;DHT22;3252;52.540;13.290;2022-09-27T11:04:19;13.70;99.90
6439;DHT22;3252;52.540;13.290;2022-09-27T11:06:28;13.70;99.90
6439;DHT22;3252;52.540;13.290;2022-09-27T11:08:32;13.80;99.90
6439;DHT22;3252;52.540;13.290;2022-09-27T11:11:01;13.70;99.90
6439;DHT22;3252;52.540;13.290;2022-09-27T11:13:07;13.80;99.90
6439;DHT22;3252;52.540;13.290;2022-09-27T11:15:14;13.80;99.90
6439;DHT22;3252;52.540;13.290;2022-09-27T11:17:31;13.80;99.90
6439;DHT22;3252;52.540;13.290;2022-09-27T11:19:51;13.90;99.90
6439;DHT22;3252;52.540;13.290;2022-09-27T11:22:02;13.90;99.90
6439;DHT22;3252;52.540;13.290;2022-09-27T11:24:23;14.10;99.90
6439;DHT22;3252;52.540;13.290;2022-09-27T11:26:38;14.20;99.90
6439;DHT22;3252;52.540;13.290;2022-09-27T11:28:53;14.40;99.90
6439;DHT22;3252;52.540;13.290;2022-09-27T11:31:27;14.50;99.90
6439;DHT22;3252;52.540;13.290;2022-09-27T11:34:14;14.40;99.90
6439;DHT22;3252;52.540;13.290;2022-09-27T11:36:29;14.20;99.90
6439;DHT22;3252;52.540;13.290;2022-09-27T11:38:44;14.20;99.90
6439;DHT22;3252;52.540;13.290;2022-09-27T11:41:08;14.00;99.90
6439;DHT22;3252;52.540;13.290;2022-09-27T11:43:28;13.70;99.90
6439;DHT22;3252;52.540;13.290;2022-09-27T11:45:47;13.30;99.90
6439;DHT22;3252;52.540;13.290;2022-09-27T11:48:00;13.00;99.90
6439;DHT22;3252;52.540;13.290;2022-09-27T11:52:41;12.60;99.90
6439;DHT22;3252;52.540;13.290;2022-09-27T11:55:02;12.50;99.90
6439;DHT22;3252;52.540;13.290;2022-09-27T11:57:10;12.50;99.90
6439;DHT22;3252;52.540;13.290;2022-09-27T12:02:05;12.40;99.90
6439;DHT22;3252;52.540;13.290;2022-09-27T12:04:32;12.40;99.90
6439;DHT22;3252;52.540;13.290;2022-09-27T12:06:46;12.50;99.90
6439;DHT22;3252;52.540;13.290;2022-09-27T12:09:02;12.50;99.90
6439;DHT22;3252;52.540;13.290;2022-09-27T12:11:11;12.50;99.90
6439;DHT22;3252;52.540;13.290;2022-09-27T12:13:26;12.50;99.90
6439;DHT22;3252;52.540;13.290;2022-09-27T12:15:35;12.50;99.90
6439;DHT22;3252;52.540;13.290;2022-09-27T12:17:44;12.50;99.90
6439;DHT22;3252;52.540;13.290;2022-09-27T12:19:49;12.50;99.90
6439;DHT22;3252;52.540;13.290;2022-09-27T12:21:57;12.60;99.90
6439;DHT22;3252;52.540;13.290;2022-09-27T12:24:02;12.60;99.90
6439;DHT22;3252;52.540;13.290;2022-09-27T12:26:13;12.60;99.90
6439;DHT22;3252;52.540;13.290;2022-09-27T12:28:20;12.60;99.90
6439;DHT22;3252;52.540;13.290;2022-09-27T12:30:25;12.60;99.90
6439;DHT22;3252;52.540;13.290;2022-09-27T12:32:32;12.60;99.90
6439;DHT22;3252;52.540;13.290;2022-09-27T12:34:45;12.80;99.90
6439;DHT22;3252;52.540;13.290;2022-09-27T12:36:57;13.00;99.90
6439;DHT22;3252;52.540;13.290;2022-09-27T12:39:04;13.30;99.90
6439;DHT22;3252;52.540;13.290;2022-09-27T12:41:12;13.60;99.90
6439;DHT22;3252;52.540;13.290;2022-09-27T12:43:28;13.70;99.90
6439;DHT22;3252;52.540;13.290;2022-09-27T12:45:45;13.80;99.90
6439;DHT22;3252;52.540;13.290;2022-09-27T12:48:00;13.60;99.90
6439;DHT22;3252;52.540;13.290;2022-09-27T12:50:13;13.60;99.90
6439;DHT22;3252;52.540;13.290;2022-09-27T12:52:22;13.60;99.90
6439;DHT22;3252;52.540;13.290;2022-09-27T12:54:54;13.60;99.90
6439;DHT22;3252;52.540;13.290;2022-09-27T12:57:02;13.50;99.90
6439;DHT22;3252;52.540;13.290;2022-09-27T12:59:18;13.40;99.90
6439;DHT22;3252;52.540;13.290;2022-09-27T13:01:34;13.40;99.90
6439;DHT22;3252;52.540;13.290;2022-09-27T13:04:14;13.30;99.90
6439;DHT22;3252;52.540;13.290;2022-09-27T13:06:35;13.30;99.90
6439;DHT22;3252;52.540;13.290;2022-09-27T13:08:56;13.30;99.90
6439;DHT22;3252;52.540;13.290;2022-09-27T13:11:08;13.40;99.90
6439;DHT22;3252;52.540;13.290;2022-09-27T13:13:15;13.50;99.90
6439;DHT22;3252;52.540;13.290;2022-09-27T13:15:24;13.60;99.90
6439;DHT22;3252;52.540;13.290;2022-09-27T13:17:47;13.50;99.90
6439;DHT22;3252;52.540;13.290;2022-09-27T13:20:41;13.40;99.90
6439;DHT22;3252;52.540;13.290;2022-09-27T13:26:22;13.40;99.90
6439;DHT22;3252;52.540;13.290;2022-09-27T13:28:31;13.40;99.90
6439;DHT22;3252;52.540;13.290;2022-09-27T13:30:53;13.40;99.90
6439;DHT22;3252;52.540;13.290;2022-09-27T13:35:38;13.40;99.90
6439;DHT22;3252;52.540;13.290;2022-09-27T13:37:52;13.30;99.90
6439;DHT22;3252;52.540;13.290;2022-09-27T13:40:15;13.30;99.90
6439;DHT22;3252;52.540;13.290;2022-09-27T13:43:11;13.20;99.90
6439;DHT22;3252;52.540;13.290;2022-09-27T13:45:27;13.10;99.90
6439;DHT22;3252;52.540;13.290;2022-09-27T13:47:35;13.20;99.90
6439;DHT22;3252;52.540;13.290;2022-09-27T13:49:45;13.20;99.90
6439;DHT22;3252;52.540;13.290;2022-09-27T13:51:55;13.20;99.90
6439;DHT22;3252;52.540;13.290;2022-09-27T13:54:00;13.10;99.90
6439;DHT22;3252;52.540;13.290;2022-09-27T13:56:04;13.10;99.90
6439;DHT22;3252;52.540;13.290;2022-09-27T13:58:31;13.10;99.90
6439;DHT22;3252;52.540;13.290;2022-09-27T14:00:39;13.10;99.90
6439;DHT22;3252;52.540;13.290;2022-09-27T14:02:52;13.10;99.90
6439;DHT22;3252;52.540;13.290;2022-09-27T14:04:55;13.10;99.90
6439;DHT22;3252;52.540;13.290;2022-09-27T14:07:00;13.00;99.90
6439;DHT22;3252;52.540;13.290;2022-09-27T14:09:15;13.00;99.90
6439;DHT22;3252;52.540;13.290;2022-09-27T14:11:24;13.10;99.90
6439;DHT22;3252;52.540;13.290;2022-09-27T14:13:29;13.10;99.90
6439;DHT22;3252;52.540;13.290;2022-09-27T14:15:38;13.00;99.90
6439;DHT22;3252;52.540;13.290;2022-09-27T14:17:41;13.10;99.90
6439;DHT22;3252;52.540;13.290;2022-09-27T14:19:46;13.10;99.90
6439;DHT22;3252;52.540;13.290;2022-09-27T14:22:11;13.20;99.90
6439;DHT22;3252;52.540;13.290;2022-09-27T14:24:27;13.10;99.90
6439;DHT22;3252;52.540;13.290;2022-09-27T14:26:32;13.10;99.90
6439;DHT22;3252;52.540;13.290;2022-09-27T14:28:41;13.10;99.90
6439;DHT22;3252;52.540;13.290;2022-09-27T14:31:09;13.00;99.90
6439;DHT22;3252;52.540;13.290;2022-09-27T14:33:44;13.00;99.90
6439;DHT22;3252;52.540;13.290;2022-09-27T14:35:48;13.10;99.90
6439;DHT22;3252;52.540;13.290;2022-09-27T14:38:10;13.10;99.90
6439;DHT22;3252;52.540;13.290;2022-09-27T14:40:20;13.00;99.90
6439;DHT22;3252;52.540;13.290;2022-09-27T14:42:29;13.00;99.90
6439;DHT22;3252;52.540;13.290;2022-09-27T14:44:42;13.00;99.90
6439;DHT22;3252;52.540;13.290;2022-09-27T14:47:06;13.00;99.90
6439;DHT22;3252;52.540;13.290;2022-09-27T14:49:18;12.90;99.90
6439;DHT22;3252;52.540;13.290;2022-09-27T14:51:26;13.00;99.90
6439;DHT22;3252;52.540;13.290;2022-09-27T14:53:31;13.00;99.90
6439;DHT22;3252;52.540;13.290;2022-09-27T14:55:35;13.10;99.90
6439;DHT22;3252;52.540;13.290;2022-09-27T14:57:39;13.10;99.90
6439;DHT22;3252;52.540;13.290;2022-09-27T14:59:48;13.10;99.90
6439;DHT22;3252;52.540;13.290;2022-09-27T15:01:51;13.10;99.90
6439;DHT22;3252;52.540;13.290;2022-09-27T15:03:53;13.10;99.90
6439;DHT22;3252;52.540;13.290;2022-09-27T15:05:56;13.10;99.90
6439;DHT22;3252;52.540;13.290;2022-09-27T15:08:02;13.10;99.90
6439;DHT22;3252;52.540;13.290;2022-09-27T15:10:10;13.00;99.90
6439;DHT22;3252;52.540;13.290;2022-09-27T15:12:17;13.00;99.90
6439;DHT22;3252;52.540;13.290;2022-09-27T15:14:22;13.00;99.90
6439;DHT22;3252;52.540;13.290;2022-09-27T15:16:27;12.90;99.90
6439;DHT22;3252;52.540;13.290;2022-09-27T15:18:39;12.90;99.90
6439;DHT22;3252;52.540;13.290;2022-09-27T15:20:52;12.90;99.90
6439;DHT22;3252;52.540;13.290;2022-09-27T15:22:57;13.00;99.90
6439;DHT22;3252;52.540;13.290;2022-09-27T15:25:05;13.00;99.90
6439;DHT22;3252;52.540;13.290;2022-09-27T15:27:14;12.90;99.90
6439;DHT22;3252;52.540;13.290;2022-09-27T15:29:19;12.90;99.90
6439;DHT22;3252;52.540;13.290;2022-09-27T15:31:29;12.90;99.90
6439;DHT22;3252;52.540;13.290;2022-09-27T15:33:33;12.90;99.90
6439;DHT22;3252;52.540;13.290;2022-09-27T15:35:35;12.80;99.90
6439;DHT22;3252;52.540;13.290;2022-09-27T15:37:38;12.90;99.90
6439;DHT22;3252;52.540;13.290;2022-09-27T15:39:41;12.80;99.90
6439;DHT22;3252;52.540;13.290;2022-09-27T15:42:07;12.80;99.90
6439;DHT22;3252;52.540;13.290;2022-09-27T15:44:37;12.90;99.90
6439;DHT22;3252;52.540;13.290;2022-09-27T15:46:41;12.80;99.90
6439;DHT22;3252;52.540;13.290;2022-09-27T15:51:38;12.80;99.90
6439;DHT22;3252;52.540;13.290;2022-09-27T15:53:44;12.80;99.90
6439;DHT22;3252;52.540;13.290;2022-09-27T15:55:48;12.80;99.90
6439;DHT22;3252;52.540;13.290;2022-09-27T15:57:54;12.60;99.90
6439;DHT22;3252;52.540;13.290;2022-09-27T15:59:57;12.50;99.90
6439;DHT22;3252;52.540;13.290;2022-09-27T16:02:02;12.40;99.90
6439;DHT22;3252;52.540;13.290;2022-09-27T16:04:07;12.30;99.90
6439;DHT22;3252;52.540;13.290;2022-09-27T16:06:10;12.20;99.90
6439;DHT22;3252;52.540;13.290;2022-09-27T16:08:14;12.20;99.90
6439;DHT22;3252;52.540;13.290;2022-09-27T16:10:18;12.10;99.90
6439;DHT22;3252;52.540;13.290;2022-09-27T16:12:20;12.10;99.90
6439;DHT22;3252;52.540;13.290;2022-09-27T16:14:22;12.00;99.90
6439;DHT22;3252;52.540;13.290;2022-09-27T16:16:24;12.00;99.90
6439;DHT22;3252;52.540;13.290;2022-09-27T16:18:28;12.00;99.90
6439;DHT22;3252;52.540;13.290;2022-09-27T16:20:31;12.00;99.90
6439;DHT22;3252;52.540;13.290;2022-09-27T16:22:33;12.00;99.90
6439;DHT22;3252;52.540;13.290;2022-09-27T16:24:35;12.00;99.90
6439;DHT22;3252;52.540;13.290;2022-09-27T16:26:38;12.00;99.90
6439;DHT22;3252;52.540;13.290;2022-09-27T16:28:40;12.00;99.90
6439;DHT22;3252;52.540;13.290;2022-09-27T16:30:42;11.90;99.90
6439;DHT22;3252;52.540;13.290;2022-09-27T16:32:46;11.90;99.90
6439;DHT22;3252;52.540;13.290;2022-09-27T16:34:49;11.90;99.90
6439;DHT22;3252;52.540;13.290;2022-09-27T16:36:51;11.90;99.90
6439;DHT22;3252;52.540;13.290;2022-09-27T16:38:53;11.90;99.90
6439;DHT22;3252;52.540;13.290;2022-09-27T16:41:02;11.90;99.90
6439;DHT22;3252;52.540;13.290;2022-09-27T16:43:09;11.80;99.90
6439;DHT22;3252;52.540;13.290;2022-09-27T16:45:11;11.90;99.90
6439;DHT22;3252;52.540;13.290;2022-09-27T16:47:17;11.80;99.90
6439;DHT22;3252;52.540;13.290;2022-09-27T16:49:19;11.70;99.90
6439;DHT22;3252;52.540;13.290;2022-09-27T16:51:42;11.70;99.90
6439;DHT22;3252;52.540;13.290;2022-09-27T16:53:57;11.70;99.90
6439;DHT22;3252;52.540;13.290;2022-09-27T16:56:03;11.60;99.90
6439;DHT22;3252;52.540;13.290;2022-09-27T16:58:05;11.60;99.90
6439;DHT22;3252;52.540;13.290;2022-09-27T17:00:09;11.50;99.90
6439;DHT22;3252;52.540;13.290;2022-09-27T17:02:11;11.50;99.90
6439;DHT22;3252;52.540;13.290;2022-09-27T17:04:13;11.40;99.90
6439;DHT22;3252;52.540;13.290;2022-09-27T17:06:15;11.40;99.90
6439;DHT22;3252;52.540;13.290;2022-09-27T17:08:19;11.40;99.90
6439;DHT22;3252;52.540;13.290;2022-09-27T17:10:22;11.40;99.90
6439;DHT22;3252;52.540;13.290;2022-09-27T17:12:25;11.40;99.90
6439;DHT22;3252;52.540;13.290;2022-09-27T17:14:27;11.30;99.90
6439;DHT22;3252;52.540;13.290;2022-09-27T17:16:29;11.30;99.90
6439;DHT22;3252;52.540;13.290;2022-09-27T17:18:31;11.20;99.90
6439;DHT22;3252;52.540;13.290;2022-09-27T17:20:33;11.20;99.90
6439;DHT22;3252;52.540;13.290;2022-09-27T17:22:37;11.20;99.90
6439;DHT22;3252;52.540;13.290;2022-09-27T17:24:40;11.20;99.90
6439;DHT22;3252;52.540;13.290;2022-09-27T17:26:42;11.10;99.90
6439;DHT22;3252;52.540;13.290;2022-09-27T17:28:46;11.10;99.90
6439;DHT22;3252;52.540;13.290;2022-09-27T17:30:48;11.10;99.90
6439;DHT22;3252;52.540;13.290;2022-09-27T17:32:55;11.00;99.90
6439;DHT22;3252;52.540;13.290;2022-09-27T17:34:58;11.00;99.90
6439;DHT22;3252;52.540;13.290;2022-09-27T17:37:00;11.10;99.90
6439;DHT22;3252;52.540;13.290;2022-09-27T17:39:03;11.10;99.90
6439;DHT22;3252;52.540;13.290;2022-09-27T17:41:08;11.10;99.90
6439;DHT22;3252;52.540;13.290;2022-09-27T17:43:11;11.10;99.90
6439;DHT22;3252;52.540;13.290;2022-09-27T17:45:15;11.10;99.90
6439;DHT22;3252;52.540;13.290;2022-09-27T17:47:18;11.00;99.90
6439;DHT22;3252;52.540;13.290;2022-09-27T17:49:38;11.00;99.90
6439;DHT22;3252;52.540;13.290;2022-09-27T17:51:58;11.00;99.90
6439;DHT22;3252;52.540;13.290;2022-09-27T17:54:04;11.00;99.90
6439;DHT22;3252;52.540;13.290;2022-09-27T17:56:08;10.90;99.90
6439;DHT22;3252;52.540;13.290;2022-09-27T17:58:10;10.90;99.90
6439;DHT22;3252;52.540;13.290;2022-09-27T18:00:12;10.90;99.90
6439;DHT22;3252;52.540;13.290;2022-09-27T18:02:14;10.90;99.90
6439;DHT22;3252;52.540;13.290;2022-09-27T18:04:17;10.90;99.90
6439;DHT22;3252;52.540;13.290;2022-09-27T18:06:21;10.90;99.90
6439;DHT22;3252;52.540;13.290;2022-09-27T18:08:25;10.90;99.90
6439;DHT22;3252;52.540;13.290;2022-09-27T18:10:29;10.90;99.90
6439;DHT22;3252;52.540;13.290;2022-09-27T18:12:33;10.90;99.90
6439;DHT22;3252;52.540;13.290;2022-09-27T18:14:35;10.90;99.90
6439;DHT22;3252;52.540;13.290;2022-09-27T18:16:38;10.80;99.90
6439;DHT22;3252;52.540;13.290;2022-09-27T18:18:57;10.80;99.90
6439;DHT22;3252;52.540;13.290;2022-09-27T18:21:04;10.80;99.90
6439;DHT22;3252;52.540;13.290;2022-09-27T18:23:06;10.80;99.90
6439;DHT22;3252;52.540;13.290;2022-09-27T18:25:13;10.80;99.90
6439;DHT22;3252;52.540;13.290;2022-09-27T18:27:15;10.90;99.90
6439;DHT22;3252;52.540;13.290;2022-09-27T18:29:21;10.90;99.90
6439;DHT22;3252;52.540;13.290;2022-09-27T18:31:23;10.90;99.90
6439;DHT22;3252;52.540;13.290;2022-09-27T18:33:31;10.90;99.90
6439;DHT22;3252;52.540;13.290;2022-09-27T18:35:52;10.90;99.90
6439;DHT22;3252;52.540;13.290;2022-09-27T18:37:55;10.90;99.90
6439;DHT22;3252;52.540;13.290;2022-09-27T18:39:56;10.90;99.90
6439;DHT22;3252;52.540;13.290;2022-09-27T18:41:58;10.90;99.90
6439;DHT22;3252;52.540;13.290;2022-09-27T18:44:02;10.90;99.90
6439;DHT22;3252;52.540;13.290;2022-09-27T18:46:10;10.90;99.90
6439;DHT22;3252;52.540;13.290;2022-09-27T18:48:12;10.90;99.90
6439;DHT22;3252;52.540;13.290;2022-09-27T18:50:14;10.80;99.90
6439;DHT22;3252;52.540;13.290;2022-09-27T18:52:17;10.80;99.90
6439;DHT22;3252;52.540;13.290;2022-09-27T18:54:20;10.80;99.90
6439;DHT22;3252;52.540;13.290;2022-09-27T18:56:22;10.80;99.90
6439;DHT22;3252;52.540;13.290;2022-09-27T18:58:24;10.70;99.90
6439;DHT22;3252;52.540;13.290;2022-09-27T19:00:26;10.80;99.90
6439;DHT22;3252;52.540;13.290;2022-09-27T19:02:30;10.80;99.90
6439;DHT22;3252;52.540;13.290;2022-09-27T19:04:33;10.80;99.90
6439;DHT22;3252;52.540;13.290;2022-09-27T19:06:36;10.80;99.90
6439;DHT22;3252;52.540;13.290;2022-09-27T19:08:38;10.80;99.90
6439;DHT22;3252;52.540;13.290;2022-09-27T19:10:40;10.80;99.90
6439;DHT22;3252;52.540;13.290;2022-09-27T19:12:42;10.80;99.90
6439;DHT22;3252;52.540;13.290;2022-09-27T19:14:44;10.70;99.90
6439;DHT22;3252;52.540;13.290;2022-09-27T19:16:46;10.60;99.90
6439;DHT22;3252;52.540;13.290;2022-09-27T19:18:50;10.60;99.90
6439;DHT22;3252;52.540;13.290;2022-09-27T19:20:53;10.60;99.90
6439;DHT22;3252;52.540;13.290;2022-09-27T19:22:56;10.50;99.90
6439;DHT22;3252;52.540;13.290;2022-09-27T19:24:58;10.60;99.90
6439;DHT22;3252;52.540;13.290;2022-09-27T19:27:00;10.60;99.90
6439;DHT22;3252;52.540;13.290;2022-09-27T19:29:02;10.60;99.90
6439;DHT22;3252;52.540;13.290;2022-09-27T19:31:05;10.60;99.90
6439;DHT22;3252;52.540;13.290;2022-09-27T19:33:08;10.60;99.90
6439;DHT22;3252;52.540;13.290;2022-09-27T19:35:11;10.60;99.90
6439;DHT22;3252;52.540;13.290;2022-09-27T19:37:13;10.60;99.90
6439;DHT22;3252;52.540;13.290;2022-09-27T19:39:16;10.60;99.90
6439;DHT22;3252;52.540;13.290;2022-09-27T19:41:17;10.50;99.90
6439;DHT22;3252;52.540;13.290;2022-09-27T19:43:20;10.60;99.90
6439;DHT22;3252;52.540;13.290;2022-09-27T19:45:22;10.50;99.90
6439;DHT22;3252;52.540;13.290;2022-09-27T19:47:24;10.60;99.90
6439;DHT22;3252;52.540;13.290;2022-09-27T19:49:26;10.50;99.90
6439;DHT22;3252;52.540;13.290;2022-09-27T19:51:29;10.50;99.90
6439;DHT22;3252;52.540;13.290;2022-09-27T19:53:33;10.50;99.90
6439;DHT22;3252;52.540;13.290;2022-09-27T19:55:35;10.50;99.90
6439;DHT22;3252;52.540;13.290;2022-09-27T19:57:37;10.50;99.90
6439;DHT22;3252;52.540;13.290;2022-09-27T19:59:38;10.50;99.90
6439;DHT22;3252;52.540;13.290;2022-09-27T20:01:41;10.50;99.90
6439;DHT22;3252;52.540;13.290;2022-09-27T20:03:44;10.50;99.90
6439;DHT22;3252;52.540;13.290;2022-09-27T20:05:51;10.50;99.90
6439;DHT22;3252;52.540;13.290;2022-09-27T20:07:54;10.50;99.90
6439;DHT22;3252;52.540;13.290;2022-09-27T20:09:56;10.40;99.90
6439;DHT22;3252;52.540;13.290;2022-09-27T20:11:58;10.40;99.90
6439;DHT22;3252;52.540;13.290;2022-09-27T20:14:00;10.40;99.90
6439;DHT22;3252;52.540;13.290;2022-09-27T20:16:04;10.40;99.90
6439;DHT22;3252;52.540;13.290;2022-09-27T20:18:06;10.40;99.90
6439;DHT22;3252;52.540;13.290;2022-09-27T20:20:08;10.40;99.90
6439;DHT22;3252;52.540;13.290;2022-09-27T20:22:10;10.40;99.90
6439;DHT22;3252;52.540;13.290;2022-09-27T20:24:13;10.40;99.90
6439;DHT22;3252;52.540;13.290;2022-09-27T20:26:17;10.40;99.90
6439;DHT22;3252;52.540;13.290;2022-09-27T20:28:19;10.30;99.90
6439;DHT22;3252;52.540;13.290;2022-09-27T20:30:21;10.30;99.90
6439;DHT22;3252;52.540;13.290;2022-09-27T20:32:23;10.30;99.90
6439;DHT22;3252;52.540;13.290;2022-09-27T20:34:25;10.20;99.90
6439;DHT22;3252;52.540;13.290;2022-09-27T20:36:29;10.10;99.90
6439;DHT22;3252;52.540;13.290;2022-09-27T20:38:31;10.10;99.90
6439;DHT22;3252;52.540;13.290;2022-09-27T20:40:34;10.10;99.90
6439;DHT22;3252;52.540;13.290;2022-09-27T20:42:36;10.10;99.90
6439;DHT22;3252;52.540;13.290;2022-09-27T20:44:38;10.10;99.90
6439;DHT22;3252;52.540;13.290;2022-09-27T20:46:41;10.10;99.90
6439;DHT22;3252;52.540;13.290;2022-09-27T20:48:45;10.10;99.90
6439;DHT22;3252;52.540;13.290;2022-09-27T20:50:54;10.10;99.90
6439;DHT22;3252;52.540;13.290;2022-09-27T20:52:56;10.10;99.90
6439;DHT22;3252;52.540;13.290;2022-09-27T20:54:58;10.20;99.90
6439;DHT22;3252;52.540;13.290;2022-09-27T20:57:01;10.20;99.90
